createdAt,value
2018-07-06T00:00:58.531Z,99.03
2018-07-06T00:03:44.948Z,100.00
2018-07-06T00:06:31.331Z,100.00
2018-07-06T00:09:17.529Z,100.00
2018-07-06T00:12:03.770Z,100.00
2018-07-06T00:14:50.102Z,100.00
2018-07-06T00:17:36.353Z,100.00
2018-07-06T00:20:22.591Z,100.00
2018-07-06T00:23:08.977Z,100.00
2018-07-06T00:25:55.325Z,100.00
2018-07-06T00:28:41.540Z,100.00
2018-07-06T00:31:27.814Z,100.00
2018-07-06T00:34:14.207Z,100.00
2018-07-06T00:37:00.642Z,100.00
2018-07-06T00:39:47.044Z,100.00
2018-07-06T00:42:33.435Z,100.00
2018-07-06T00:45:19.776Z,100.00
2018-07-06T00:48:06.093Z,100.00
2018-07-06T00:50:52.528Z,100.00
2018-07-06T00:53:39.037Z,100.00
2018-07-06T00:56:25.324Z,100.00
2018-07-06T00:59:11.679Z,100.00
2018-07-06T01:01:58.030Z,100.00
2018-07-06T01:04:44.370Z,100.00
2018-07-06T01:07:30.710Z,100.00
2018-07-06T01:10:17.214Z,100.00
2018-07-06T01:13:03.887Z,100.00
2018-07-06T01:15:50.054Z,100.00
2018-07-06T01:18:36.394Z,100.00
2018-07-06T01:21:22.628Z,100.00
2018-07-06T01:24:08.983Z,100.00
2018-07-06T01:26:55.463Z,100.00
2018-07-06T01:29:41.790Z,100.00
2018-07-06T01:32:28.092Z,100.00
2018-07-06T01:35:14.365Z,100.00
2018-07-06T01:38:00.821Z,100.00
2018-07-06T01:40:47.096Z,100.00
2018-07-06T01:43:33.504Z,100.00
2018-07-06T01:46:19.906Z,100.00
2018-07-06T01:49:06.271Z,100.00
2018-07-06T01:51:52.804Z,100.00
2018-07-06T01:54:39.146Z,100.00
2018-07-06T01:57:19.469Z,100.00
2018-07-06T02:00:05.759Z,100.00
2018-07-06T02:02:52.017Z,100.00
2018-07-06T02:05:38.360Z,100.00
2018-07-06T02:08:24.553Z,100.00
2018-07-06T02:11:10.996Z,100.00
2018-07-06T02:13:57.390Z,100.00
2018-07-06T02:16:43.779Z,100.00
2018-07-06T02:19:29.988Z,100.00
2018-07-06T02:22:16.340Z,100.00
2018-07-06T02:25:02.580Z,100.00
2018-07-06T02:27:48.936Z,100.00
2018-07-06T02:30:35.200Z,100.00
2018-07-06T02:33:21.423Z,100.00
2018-07-06T02:36:07.672Z,100.00
2018-07-06T02:38:54.120Z,100.00
2018-07-06T02:41:40.765Z,100.00
2018-07-06T02:44:27.001Z,100.00
2018-07-06T02:47:13.386Z,100.00
2018-07-06T02:49:59.634Z,100.00
2018-07-06T02:52:46.069Z,100.00
2018-07-06T02:55:32.683Z,100.00
2018-07-06T02:58:19.042Z,100.00
2018-07-06T03:01:05.282Z,100.00
2018-07-06T03:03:51.661Z,100.00
2018-07-06T03:06:37.998Z,100.00
2018-07-06T03:09:24.341Z,100.00
2018-07-06T03:12:10.649Z,100.00
2018-07-06T03:14:57.483Z,100.00
2018-07-06T03:17:43.660Z,100.00
2018-07-06T03:20:29.789Z,100.00
2018-07-06T03:23:16.094Z,100.00
2018-07-06T03:26:02.587Z,100.00
2018-07-06T03:28:49.071Z,100.00
2018-07-06T03:31:35.264Z,100.00
2018-07-06T03:34:21.530Z,100.00
2018-07-06T03:37:07.788Z,100.00
2018-07-06T03:39:54.239Z,100.00
2018-07-06T03:42:40.542Z,100.00
2018-07-06T03:45:27.071Z,100.00
2018-07-06T03:48:13.528Z,100.00
2018-07-06T03:50:59.907Z,100.00
2018-07-06T03:53:46.718Z,100.00
2018-07-06T03:56:27.303Z,100.00
2018-07-06T03:59:13.696Z,100.00
2018-07-06T04:02:00.088Z,100.00
2018-07-06T04:04:46.374Z,100.00
2018-07-06T04:07:32.627Z,100.00
2018-07-06T04:10:13.029Z,100.00
2018-07-06T04:12:59.390Z,100.00
2018-07-06T04:15:45.738Z,100.00
2018-07-06T04:18:32.266Z,100.00
2018-07-06T04:21:18.365Z,100.00
2018-07-06T04:24:04.626Z,100.00
2018-07-06T04:26:50.915Z,100.00
2018-07-06T04:29:37.278Z,100.00
2018-07-06T04:32:17.723Z,100.00
2018-07-06T04:35:04.040Z,100.00
2018-07-06T04:37:50.265Z,100.00
2018-07-06T04:40:36.491Z,100.00
2018-07-06T04:43:22.609Z,100.00
2018-07-06T04:46:02.798Z,100.00
2018-07-06T04:48:48.907Z,100.00
2018-07-06T04:51:35.259Z,100.00
2018-07-06T04:54:21.574Z,100.00
2018-07-06T04:57:07.970Z,100.00
2018-07-06T04:59:54.395Z,100.00
2018-07-06T05:02:40.693Z,100.00
2018-07-06T05:05:26.858Z,100.00
2018-07-06T05:08:13.031Z,100.00
2018-07-06T05:10:59.334Z,100.00
2018-07-06T05:13:45.667Z,100.00
2018-07-06T05:16:32.052Z,100.00
2018-07-06T05:19:18.527Z,100.00
2018-07-06T05:22:04.831Z,100.00
2018-07-06T05:24:51.186Z,100.00
2018-07-06T05:27:37.659Z,100.00
2018-07-06T05:30:23.967Z,100.00
2018-07-06T05:33:10.202Z,100.00
2018-07-06T05:35:56.624Z,100.00
2018-07-06T05:38:42.977Z,100.00
2018-07-06T05:41:29.390Z,100.00
2018-07-06T05:44:15.726Z,100.00
2018-07-06T05:47:02.146Z,100.00
2018-07-06T05:49:49.468Z,100.00
2018-07-06T05:52:35.767Z,100.00
2018-07-06T05:55:21.942Z,100.00
2018-07-06T05:58:08.258Z,100.00
2018-07-06T06:00:57.271Z,100.00
2018-07-06T06:03:44.254Z,100.00
2018-07-06T06:06:31.270Z,100.00
2018-07-06T06:08:59.332Z,100.00
2018-07-06T06:11:29.145Z,100.00
2018-07-06T06:13:58.380Z,100.00
2018-07-06T06:16:27.764Z,100.00
2018-07-06T06:18:57.064Z,100.00
2018-07-06T06:21:26.412Z,100.00
2018-07-06T06:23:55.647Z,100.00
2018-07-06T06:26:30.078Z,100.00
2018-07-06T06:28:59.683Z,100.00
2018-07-06T06:31:30.234Z,100.00
2018-07-06T06:34:02.647Z,100.00
2018-07-06T06:36:32.541Z,100.00
2018-07-06T06:39:02.279Z,100.00
2018-07-06T06:41:31.626Z,100.00
2018-07-06T06:44:00.926Z,100.00
2018-07-06T06:46:30.353Z,100.00
2018-07-06T06:48:59.684Z,100.00
2018-07-06T06:51:29.056Z,100.00
2018-07-06T06:53:58.540Z,100.00
2018-07-06T06:56:27.973Z,100.00
2018-07-06T06:58:57.496Z,100.00
2018-07-06T07:01:26.907Z,100.00
2018-07-06T07:03:56.338Z,100.00
2018-07-06T07:06:25.725Z,100.00
2018-07-06T07:08:55.178Z,100.00
2018-07-06T07:11:24.486Z,100.00
2018-07-06T07:13:54.097Z,100.00
2018-07-06T07:16:23.435Z,100.00
2018-07-06T07:18:52.984Z,100.00
2018-07-06T07:21:22.491Z,100.00
2018-07-06T07:23:52.071Z,100.00
2018-07-06T07:26:21.522Z,100.00
2018-07-06T07:28:50.925Z,100.00
2018-07-06T07:31:21.123Z,100.00
2018-07-06T07:33:50.801Z,100.00
2018-07-06T07:36:20.327Z,100.00
2018-07-06T07:38:49.926Z,100.00
2018-07-06T07:41:19.416Z,100.00
2018-07-06T07:43:48.983Z,100.00
2018-07-06T07:46:18.371Z,100.00
2018-07-06T07:48:47.750Z,100.00
2018-07-06T07:52:06.205Z,100.00
2018-07-06T07:54:42.107Z,100.00
2018-07-06T07:57:11.573Z,100.00
2018-07-06T07:59:41.710Z,100.00
2018-07-06T08:02:11.047Z,100.00
2018-07-06T08:04:40.852Z,100.00
2018-07-06T08:07:10.390Z,100.00
2018-07-06T08:09:39.769Z,100.00
2018-07-06T08:12:09.176Z,100.00
2018-07-06T08:14:38.551Z,100.00
2018-07-06T08:17:07.896Z,100.00
2018-07-06T08:19:37.236Z,100.00
2018-07-06T08:22:06.603Z,100.00
2018-07-06T08:24:35.905Z,100.00
2018-07-06T08:27:05.322Z,100.00
2018-07-06T08:29:34.683Z,100.00
2018-07-06T08:32:04.205Z,100.00
2018-07-06T08:34:50.445Z,99.95
2018-07-06T08:38:05.325Z,99.52
2018-07-06T08:40:34.847Z,95.67
2018-07-06T08:43:05.358Z,93.78
2018-07-06T08:45:35.244Z,90.71
2018-07-06T08:48:04.698Z,88.72
2018-07-06T08:50:33.919Z,88.01
2018-07-06T08:53:03.367Z,84.57
2018-07-06T08:55:32.898Z,81.92
2018-07-06T08:58:02.207Z,83.02
2018-07-06T09:00:31.516Z,83.61
2018-07-06T09:03:00.882Z,83.76
2018-07-06T09:05:30.326Z,83.88
2018-07-06T09:07:59.723Z,82.11
2018-07-06T09:10:28.879Z,86.21
2018-07-06T09:12:58.272Z,82.91
2018-07-06T09:15:27.622Z,81.35
2018-07-06T09:17:56.935Z,77.97
2018-07-06T09:20:26.218Z,77.24
2018-07-06T09:22:55.901Z,77.25
2018-07-06T09:25:25.473Z,76.44
2018-07-06T09:27:54.872Z,78.61
2018-07-06T09:30:24.405Z,74.52
2018-07-06T09:32:53.936Z,74.92
2018-07-06T09:35:23.507Z,73.09
2018-07-06T09:37:52.911Z,73.50
2018-07-06T09:40:22.354Z,70.54
2018-07-06T09:42:51.854Z,74.06
2018-07-06T09:45:21.171Z,71.44
2018-07-06T09:47:50.533Z,71.10
2018-07-06T09:50:19.892Z,70.18
2018-07-06T09:52:49.090Z,70.33
2018-07-06T09:55:18.529Z,69.10
2018-07-06T09:57:48.858Z,66.61
2018-07-06T10:00:23.293Z,62.55
2018-07-06T10:02:52.760Z,62.34
2018-07-06T10:05:22.205Z,65.82
2018-07-06T10:07:51.666Z,68.64
2018-07-06T10:10:21.047Z,68.46
2018-07-06T10:12:50.454Z,60.52
2018-07-06T10:15:19.992Z,62.88
2018-07-06T10:17:49.383Z,61.36
2018-07-06T10:20:18.680Z,60.72
2018-07-06T10:22:48.116Z,64.14
2018-07-06T10:25:17.484Z,63.58
2018-07-06T10:28:00.122Z,62.50
2018-07-06T10:30:40.804Z,63.17
2018-07-06T10:33:10.458Z,61.59
2018-07-06T10:35:39.783Z,57.98
2018-07-06T10:38:09.319Z,57.65
2018-07-06T10:40:38.507Z,60.93
2018-07-06T10:43:08.152Z,60.06
2018-07-06T10:45:37.631Z,59.57
2018-07-06T10:48:07.208Z,59.01
2018-07-06T10:50:36.705Z,58.02
2018-07-06T10:53:06.177Z,58.20
2018-07-06T10:55:35.568Z,62.29
2018-07-06T10:58:05.045Z,58.23
2018-07-06T11:00:34.494Z,55.55
2018-07-06T11:03:03.835Z,56.49
2018-07-06T11:05:33.254Z,52.93
2018-07-06T11:08:02.908Z,54.01
2018-07-06T11:10:32.310Z,56.79
2018-07-06T11:22:18.900Z,55.29
2018-07-06T11:24:48.316Z,55.72
2018-07-06T11:27:17.627Z,54.85
2018-07-06T11:29:47.123Z,55.25
2018-07-06T11:32:16.655Z,51.50
2018-07-06T11:34:46.070Z,51.56
2018-07-06T11:37:15.445Z,51.38
2018-07-06T11:39:44.764Z,53.06
2018-07-06T11:42:14.132Z,50.38
2018-07-06T11:44:43.335Z,51.03
2018-07-06T11:47:12.777Z,49.85
2018-07-06T11:49:42.220Z,51.08
2018-07-06T11:52:11.551Z,51.80
2018-07-06T11:54:41.017Z,49.63
2018-07-06T11:57:10.364Z,53.48
2018-07-06T11:59:39.678Z,51.72
2018-07-06T12:02:09.300Z,56.30
2018-07-06T12:04:38.876Z,53.31
2018-07-06T12:07:08.240Z,53.65
2018-07-06T12:09:37.333Z,58.24
2018-07-06T12:12:06.758Z,62.70
2018-07-06T12:14:36.159Z,65.23
2018-07-06T12:17:05.637Z,65.10
2018-07-06T12:19:34.778Z,66.20
2018-07-06T12:22:04.117Z,63.29
2018-07-06T12:24:33.503Z,61.66
2018-07-06T12:27:02.831Z,59.79
2018-07-06T12:29:32.284Z,58.83
2018-07-06T12:32:01.664Z,59.73
2018-07-06T12:34:31.099Z,56.08
2018-07-06T12:37:00.630Z,54.18
2018-07-06T12:39:29.987Z,55.13
2018-07-06T12:41:59.320Z,54.04
2018-07-06T12:44:28.768Z,55.94
2018-07-06T12:46:58.114Z,56.25
2018-07-06T12:49:27.285Z,57.65
2018-07-06T12:51:56.725Z,56.96
2018-07-06T12:54:25.903Z,56.06
2018-07-06T12:56:55.305Z,56.43
2018-07-06T12:59:24.590Z,54.73
2018-07-06T13:01:54.054Z,55.28
2018-07-06T13:04:23.478Z,50.61
2018-07-06T13:06:53.220Z,50.90
2018-07-06T13:09:22.875Z,47.79
2018-07-06T13:11:52.224Z,44.77
2018-07-06T13:14:21.692Z,45.58
2018-07-06T13:16:51.254Z,46.92
2018-07-06T13:19:29.961Z,45.27
2018-07-06T13:21:59.287Z,43.59
2018-07-06T13:24:28.383Z,44.41
2018-07-06T13:26:57.740Z,44.11
2018-07-06T13:29:27.127Z,42.94
2018-07-06T13:31:56.434Z,41.69
2018-07-06T13:34:25.748Z,41.11
2018-07-06T13:36:55.095Z,41.49
2018-07-06T13:39:24.157Z,43.97
2018-07-06T13:41:53.540Z,42.81
2018-07-06T13:44:22.983Z,45.44
2018-07-06T13:46:52.384Z,44.74
2018-07-06T13:49:21.739Z,43.23
2018-07-06T13:51:51.204Z,45.77
2018-07-06T13:54:20.620Z,46.55
2018-07-06T13:56:50.044Z,46.40
2018-07-06T13:59:19.563Z,46.60
2018-07-06T14:01:48.939Z,43.92
2018-07-06T14:04:18.392Z,42.97
2018-07-06T14:06:47.818Z,41.70
2018-07-06T14:09:17.137Z,41.69
2018-07-06T14:11:46.638Z,43.50
2018-07-06T14:14:17.776Z,41.37
2018-07-06T14:16:47.171Z,41.56
2018-07-06T14:19:16.467Z,41.57
2018-07-06T14:21:45.770Z,43.32
2018-07-06T14:24:15.252Z,44.62
2018-07-06T14:26:44.621Z,46.53
2018-07-06T14:29:14.211Z,47.23
2018-07-06T14:31:43.580Z,44.78
2018-07-06T14:34:12.963Z,45.68
2018-07-06T14:36:42.425Z,46.12
2018-07-06T14:39:11.965Z,44.18
2018-07-06T14:41:41.346Z,42.28
2018-07-06T14:44:10.793Z,41.91
2018-07-06T14:46:40.219Z,41.76
2018-07-06T14:49:09.679Z,43.50
2018-07-06T14:51:39.093Z,46.04
2018-07-06T14:54:08.493Z,45.94
2018-07-06T14:56:37.860Z,45.00
2018-07-06T14:59:07.495Z,45.34
2018-07-06T15:01:37.013Z,45.45
2018-07-06T15:04:06.615Z,45.45
2018-07-06T15:06:37.066Z,46.91
2018-07-06T15:09:07.268Z,44.67
2018-07-06T15:11:36.517Z,43.41
2018-07-06T15:14:06.243Z,43.57
2018-07-06T15:16:35.791Z,42.27
2018-07-06T15:19:05.674Z,42.50
2018-07-06T15:21:35.061Z,42.44
2018-07-06T15:24:04.494Z,41.58
2018-07-06T15:26:33.782Z,40.38
2018-07-06T15:29:02.782Z,42.12
2018-07-06T15:31:32.020Z,42.95
2018-07-06T15:34:01.349Z,45.06
2018-07-06T15:36:30.569Z,45.03
2018-07-06T15:38:59.923Z,43.31
2018-07-06T15:41:29.220Z,44.66
2018-07-06T15:43:58.515Z,43.30
2018-07-06T15:46:27.791Z,44.64
2018-07-06T15:48:57.038Z,44.96
2018-07-06T15:51:26.411Z,44.55
2018-07-06T15:53:55.762Z,45.15
2018-07-06T15:56:25.049Z,47.13
2018-07-06T15:58:54.445Z,47.78
2018-07-06T16:01:23.697Z,50.67
2018-07-06T16:03:52.885Z,52.71
2018-07-06T16:06:22.175Z,53.71
2018-07-06T16:08:51.458Z,55.04
2018-07-06T16:11:20.747Z,57.61
2018-07-06T16:13:50.085Z,60.80
2018-07-06T16:16:19.438Z,59.19
2018-07-06T16:18:48.818Z,60.08
2018-07-06T16:21:18.014Z,59.20
2018-07-06T16:23:47.365Z,61.46
2018-07-06T16:26:16.608Z,60.52
2018-07-06T16:28:45.896Z,61.96
2018-07-06T16:31:15.115Z,62.27
2018-07-06T16:33:44.338Z,62.65
2018-07-06T16:36:13.600Z,64.54
2018-07-06T16:38:42.827Z,63.88
2018-07-06T16:41:12.039Z,64.12
2018-07-06T16:43:41.311Z,64.32
2018-07-06T16:49:33.965Z,65.79
2018-07-06T16:52:03.181Z,66.59
2018-07-06T16:54:32.518Z,67.34
2018-07-06T16:57:01.758Z,65.81
2018-07-06T16:59:31.066Z,66.34
2018-07-06T17:02:00.382Z,66.47
2018-07-06T17:04:29.561Z,65.41
2018-07-06T17:06:58.803Z,66.67
2018-07-06T17:09:28.189Z,66.46
2018-07-06T17:11:57.459Z,65.18
2018-07-06T17:14:26.691Z,61.39
2018-07-06T17:16:55.965Z,60.52
2018-07-06T17:19:25.201Z,61.97
2018-07-06T17:21:54.392Z,64.24
2018-07-06T17:24:23.581Z,64.19
2018-07-06T17:26:53.258Z,63.37
2018-07-06T17:29:22.409Z,63.70
2018-07-06T17:31:51.762Z,61.29
2018-07-06T17:34:21.039Z,61.96
2018-07-06T17:36:50.315Z,63.38
2018-07-06T17:40:05.101Z,63.79
2018-07-06T17:43:26.482Z,65.10
2018-07-06T17:49:01.638Z,64.93
2018-07-06T17:51:33.356Z,66.61
2018-07-06T17:54:02.735Z,67.00
2018-07-06T17:56:32.037Z,68.79
2018-07-06T17:59:01.365Z,69.30
2018-07-06T18:01:30.645Z,69.07
2018-07-06T18:03:59.883Z,67.66
2018-07-06T18:06:29.135Z,66.99
2018-07-06T18:08:58.487Z,68.96
2018-07-06T18:11:27.815Z,68.93
2018-07-06T18:13:57.041Z,70.11
2018-07-06T18:16:27.262Z,69.52
2018-07-06T18:19:26.793Z,68.69
2018-07-06T18:21:56.148Z,68.38
2018-07-06T18:24:25.452Z,68.50
2018-07-06T18:26:54.779Z,67.44
2018-07-06T18:29:23.976Z,67.42
2018-07-06T18:31:53.412Z,67.45
2018-07-06T18:34:22.727Z,68.25
2018-07-06T18:36:52.090Z,70.75
2018-07-06T18:39:21.370Z,71.45
2018-07-06T18:41:50.795Z,76.15
2018-07-06T18:44:20.069Z,77.65
2018-07-06T18:46:49.340Z,77.70
2018-07-06T18:49:18.586Z,77.26
2018-07-06T18:51:47.882Z,77.08
2018-07-06T18:54:16.924Z,73.98
2018-07-06T18:56:46.138Z,73.92
2018-07-06T18:59:15.426Z,75.76
2018-07-06T19:01:44.685Z,79.56
2018-07-06T19:04:13.901Z,80.57
2018-07-06T19:06:43.166Z,80.83
2018-07-06T19:09:12.403Z,81.30
2018-07-06T19:11:41.606Z,81.26
2018-07-06T19:14:10.885Z,79.91
2018-07-06T19:16:40.150Z,79.13
2018-07-06T19:19:09.394Z,80.75
2018-07-06T19:21:38.449Z,81.37
2018-07-06T19:24:07.738Z,83.07
2018-07-06T19:26:36.767Z,82.32
2018-07-06T19:29:06.053Z,81.87
2018-07-06T19:31:35.405Z,81.54
2018-07-06T19:34:04.698Z,82.73
2018-07-06T19:36:33.992Z,82.45
2018-07-06T19:39:03.451Z,81.55
2018-07-06T19:41:32.704Z,82.46
2018-07-06T19:44:01.992Z,83.31
2018-07-06T19:46:31.337Z,82.43
2018-07-06T19:49:00.654Z,83.12
2018-07-06T19:51:29.933Z,83.45
2018-07-06T19:53:59.218Z,85.50
2018-07-06T19:56:28.457Z,86.30
2018-07-06T19:58:57.820Z,88.02
2018-07-06T20:01:27.122Z,88.84
2018-07-06T20:03:56.463Z,89.40
2018-07-06T20:06:25.678Z,89.04
2018-07-06T20:08:55.056Z,89.84
2018-07-06T20:11:24.314Z,89.89
2018-07-06T20:13:53.820Z,90.17
2018-07-06T20:16:23.066Z,91.33
2018-07-06T20:18:52.316Z,92.25
2018-07-06T20:21:21.573Z,91.82
2018-07-06T20:23:50.911Z,92.38
2018-07-06T20:26:20.496Z,92.23
2018-07-06T20:28:49.829Z,91.37
2018-07-06T20:31:19.218Z,90.70
2018-07-06T20:33:48.466Z,92.44
2018-07-06T20:36:17.875Z,93.13
2018-07-06T20:38:47.260Z,91.79
2018-07-06T20:41:16.611Z,90.31
2018-07-06T20:43:45.884Z,90.12
2018-07-06T20:46:15.275Z,90.22
2018-07-06T20:48:44.585Z,90.76
2018-07-06T20:51:13.820Z,91.07
2018-07-06T20:53:43.138Z,91.13
2018-07-06T20:56:12.436Z,91.30
2018-07-06T20:58:41.698Z,91.16
2018-07-06T21:01:11.011Z,91.30
2018-07-06T21:03:40.477Z,90.79
2018-07-06T21:06:09.718Z,90.75
2018-07-06T21:08:39.016Z,91.31
2018-07-06T21:11:08.385Z,91.21
2018-07-06T21:13:37.696Z,92.12
2018-07-06T21:16:07.107Z,91.84
2018-07-06T21:18:36.230Z,91.01
2018-07-06T21:21:05.572Z,90.93
2018-07-06T21:23:34.751Z,91.12
2018-07-06T21:26:04.028Z,92.11
2018-07-06T21:28:33.216Z,92.14
2018-07-06T21:31:02.510Z,93.08
2018-07-06T21:33:31.732Z,93.34
2018-07-06T21:36:01.080Z,93.76
2018-07-06T21:38:30.242Z,93.31
2018-07-06T21:40:59.520Z,93.86
2018-07-06T21:43:28.768Z,93.69
2018-07-06T21:45:58.157Z,93.69
2018-07-06T21:48:27.387Z,92.67
2018-07-06T21:50:56.685Z,92.96
2018-07-06T21:53:25.922Z,93.47
2018-07-06T21:55:55.250Z,94.28
2018-07-06T21:58:24.513Z,93.87
2018-07-06T22:00:53.798Z,93.86
2018-07-06T22:03:23.051Z,93.17
2018-07-06T22:05:52.890Z,92.80
2018-07-06T22:08:22.181Z,92.78
2018-07-06T22:10:51.521Z,93.72
2018-07-06T22:13:20.757Z,94.04
2018-07-06T22:15:49.958Z,94.23
2018-07-06T22:18:20.058Z,94.01
2018-07-06T22:20:49.819Z,93.51
2018-07-06T22:23:19.095Z,93.26
2018-07-06T22:25:48.317Z,93.05
2018-07-06T22:28:17.552Z,92.60
2018-07-06T22:30:46.758Z,91.53
2018-07-06T22:33:15.991Z,92.23
2018-07-06T22:35:45.187Z,91.46
2018-07-06T22:38:14.398Z,92.52
2018-07-06T22:40:43.598Z,91.42
2018-07-06T22:43:12.841Z,93.44
2018-07-06T22:45:42.023Z,92.98
2018-07-06T22:48:11.264Z,92.39
2018-07-06T22:50:40.451Z,93.96
2018-07-06T22:53:09.673Z,94.82
2018-07-06T22:55:38.869Z,95.60
2018-07-06T22:58:08.175Z,94.17
2018-07-06T23:00:37.435Z,94.90
2018-07-06T23:03:06.818Z,94.74
2018-07-06T23:05:36.089Z,94.90
2018-07-06T23:08:05.303Z,94.15
2018-07-06T23:10:34.514Z,93.85
2018-07-06T23:13:03.818Z,93.54
2018-07-06T23:15:33.030Z,92.16
2018-07-06T23:18:02.242Z,92.37
2018-07-06T23:20:31.492Z,91.93
2018-07-06T23:23:06.024Z,92.31
2018-07-06T23:25:36.486Z,91.17
2018-07-06T23:28:05.788Z,91.17
2018-07-06T23:30:35.054Z,88.14
2018-07-06T23:33:05.080Z,88.68
2018-07-06T23:35:34.399Z,88.05
2018-07-06T23:38:03.618Z,89.06
2018-07-06T23:40:32.819Z,89.42
2018-07-06T23:43:01.990Z,89.29
2018-07-06T23:45:31.195Z,90.29
2018-07-06T23:48:00.376Z,89.90
2018-07-06T23:50:29.566Z,89.54
2018-07-06T23:52:58.779Z,89.55
2018-07-06T23:55:27.981Z,90.32
2018-07-06T23:57:57.183Z,90.32
